Terminal Aerodrome Forecast
Issued by NWS Wichita, KS

Home | Current Version | Previous Version | Text Only | Print | Product List | Glossary On
Versions: 1 2 3 4 5 6 7 8 9 10 11 12 13 14
000
FTUS43 KICT 021139
TAFICT
TAF
KICT 021139Z 0212/0312 20009KT P6SM SCT250
     FM021700 20013G18KT P6SM SCT050
     FM030000 17007KT P6SM FEW050 SCT250=

USA.gov is the U.S. government's official web portal to all federal, state and local government web resources and services.